createdAt,value
2019-05-10T00:00:16.271Z,100.00
2019-05-10T00:03:03.281Z,100.00
2019-05-10T00:05:50.771Z,100.00
2019-05-10T00:08:37.955Z,100.00
2019-05-10T00:11:32.593Z,100.00
2019-05-10T00:14:11.302Z,100.00
2019-05-10T00:16:40.650Z,100.00
2019-05-10T00:19:10.116Z,100.00
2019-05-10T00:21:39.448Z,100.00
2019-05-10T00:24:08.775Z,100.00
2019-05-10T00:26:38.222Z,100.00
2019-05-10T00:29:07.603Z,100.00
2019-05-10T00:31:37.087Z,100.00
2019-05-10T00:34:06.559Z,100.00
2019-05-10T00:36:35.902Z,100.00
2019-05-10T00:39:06.972Z,100.00
2019-05-10T00:41:36.329Z,100.00
2019-05-10T00:44:05.684Z,100.00
2019-05-10T00:46:35.000Z,100.00
2019-05-10T00:49:04.428Z,100.00
2019-05-10T00:51:33.748Z,100.00
2019-05-10T00:54:03.075Z,100.00
2019-05-10T00:56:32.415Z,100.00
2019-05-10T00:59:01.744Z,100.00
2019-05-10T01:01:31.108Z,100.00
2019-05-10T01:04:00.449Z,100.00
2019-05-10T01:06:29.781Z,100.00
2019-05-10T01:08:59.127Z,100.00
2019-05-10T01:11:28.554Z,100.00
2019-05-10T01:13:57.873Z,100.00
2019-05-10T01:16:27.263Z,100.00
2019-05-10T01:18:56.613Z,100.00
2019-05-10T01:21:25.941Z,100.00
2019-05-10T01:23:55.276Z,100.00
2019-05-10T01:26:24.623Z,100.00
2019-05-10T01:28:54.032Z,100.00
2019-05-10T01:31:23.423Z,100.00
2019-05-10T01:33:52.776Z,100.00
2019-05-10T01:36:24.197Z,100.00
2019-05-10T01:38:53.553Z,100.00
2019-05-10T01:41:22.909Z,100.00
2019-05-10T01:43:52.259Z,100.00
2019-05-10T01:46:21.600Z,100.00
2019-05-10T01:48:50.980Z,100.00
2019-05-10T01:51:20.245Z,100.00
2019-05-10T01:53:49.570Z,100.00
2019-05-10T01:56:18.998Z,100.00
2019-05-10T01:58:48.343Z,100.00
2019-05-10T02:01:17.681Z,100.00
2019-05-10T02:03:47.020Z,100.00
2019-05-10T02:06:16.365Z,100.00
2019-05-10T02:08:45.708Z,100.00
2019-05-10T02:11:15.069Z,100.00
2019-05-10T02:13:44.415Z,100.00
2019-05-10T02:16:13.747Z,100.00
2019-05-10T02:18:43.110Z,100.00
2019-05-10T02:21:12.453Z,100.00
2019-05-10T02:23:41.810Z,100.00
2019-05-10T02:26:11.170Z,100.00
2019-05-10T02:28:40.501Z,100.00
2019-05-10T02:31:09.894Z,100.00
2019-05-10T02:33:39.228Z,100.00
2019-05-10T02:36:08.592Z,100.00
2019-05-10T02:38:37.935Z,100.00
2019-05-10T02:41:07.512Z,100.00
2019-05-10T02:43:36.890Z,100.00
2019-05-10T02:46:06.208Z,100.00
2019-05-10T02:48:35.562Z,100.00
2019-05-10T02:51:04.892Z,100.00
2019-05-10T02:53:34.413Z,100.00
2019-05-10T02:56:04.467Z,100.00
2019-05-10T02:58:34.134Z,100.00
2019-05-10T03:01:05.539Z,100.00
2019-05-10T03:03:36.262Z,100.00
2019-05-10T03:06:05.706Z,100.00
2019-05-10T03:08:49.193Z,100.00
2019-05-10T03:11:18.776Z,100.00
2019-05-10T03:13:51.083Z,100.00
2019-05-10T03:16:22.003Z,100.00
2019-05-10T03:18:52.795Z,100.00
2019-05-10T03:21:24.570Z,100.00
2019-05-10T03:23:53.943Z,100.00
2019-05-10T03:26:23.266Z,100.00
2019-05-10T03:28:52.622Z,100.00
2019-05-10T03:31:21.965Z,100.00
2019-05-10T03:33:56.505Z,100.00
2019-05-10T03:36:22.385Z,100.00
2019-05-10T03:38:51.790Z,100.00
2019-05-10T03:41:21.389Z,100.00
2019-05-10T03:43:50.748Z,100.00
2019-05-10T03:46:20.057Z,100.00
2019-05-10T03:48:49.456Z,100.00
2019-05-10T03:51:18.818Z,100.00
2019-05-10T03:53:48.145Z,100.00
2019-05-10T03:56:17.472Z,100.00
2019-05-10T03:58:46.815Z,100.00
2019-05-10T04:01:16.131Z,100.00
2019-05-10T04:03:45.461Z,100.00
2019-05-10T04:06:14.835Z,100.00
2019-05-10T04:08:44.142Z,100.00
2019-05-10T04:11:13.498Z,100.00
2019-05-10T04:13:42.831Z,100.00
2019-05-10T04:16:12.161Z,100.00
2019-05-10T04:18:41.515Z,100.00
2019-05-10T04:21:10.858Z,100.00
2019-05-10T04:23:40.212Z,100.00
2019-05-10T04:26:09.665Z,100.00
2019-05-10T04:28:39.038Z,100.00
2019-05-10T04:31:08.344Z,100.00
2019-05-10T04:33:37.671Z,100.00
2019-05-10T04:36:12.051Z,100.00
2019-05-10T04:38:38.122Z,100.00
2019-05-10T04:41:07.466Z,100.00
2019-05-10T04:43:36.809Z,100.00
2019-05-10T04:46:06.163Z,100.00
2019-05-10T04:48:35.490Z,100.00
2019-05-10T04:51:04.839Z,100.00
2019-05-10T04:53:34.225Z,100.00
2019-05-10T04:56:03.564Z,100.00
2019-05-10T04:58:33.247Z,100.00
2019-05-10T05:01:02.634Z,100.00
2019-05-10T05:03:31.999Z,100.00
2019-05-10T05:06:01.358Z,100.00
2019-05-10T05:08:30.675Z,100.00
2019-05-10T05:11:00.039Z,100.00
2019-05-10T05:13:29.379Z,100.00
2019-05-10T05:15:58.712Z,100.00
2019-05-10T05:18:28.080Z,100.00
2019-05-10T05:20:57.520Z,100.00
2019-05-10T05:23:26.981Z,100.00
2019-05-10T05:25:56.370Z,100.00
2019-05-10T05:28:25.728Z,100.00
2019-05-10T05:30:55.056Z,100.00
2019-05-10T05:33:24.390Z,100.00
2019-05-10T05:35:53.843Z,100.00
2019-05-10T05:38:23.200Z,100.00
2019-05-10T05:40:52.537Z,100.00
2019-05-10T05:43:21.931Z,100.00
2019-05-10T05:45:51.338Z,100.00
2019-05-10T05:48:21.496Z,100.00
2019-05-10T05:50:51.805Z,100.00
2019-05-10T05:53:22.514Z,100.00
2019-05-10T05:55:52.137Z,100.00
2019-05-10T05:58:26.611Z,100.00
2019-05-10T06:00:52.627Z,100.00
2019-05-10T06:03:27.695Z,100.00
2019-05-10T06:05:53.050Z,100.00
2019-05-10T06:08:24.625Z,100.00
2019-05-10T06:10:57.587Z,100.00
2019-05-10T06:13:30.138Z,100.00
2019-05-10T06:15:59.452Z,100.00
2019-05-10T06:18:26.717Z,100.00
2019-05-10T06:20:56.068Z,100.00
2019-05-10T06:23:29.335Z,100.00
2019-05-10T06:25:56.679Z,100.00
2019-05-10T06:28:32.694Z,100.00
2019-05-10T06:30:57.092Z,100.00
2019-05-10T06:33:26.457Z,100.00
2019-05-10T06:35:55.973Z,100.00
2019-05-10T06:38:25.322Z,100.00
2019-05-10T06:40:55.581Z,100.00
2019-05-10T06:43:24.941Z,100.00
2019-05-10T06:45:54.441Z,100.00
2019-05-10T06:48:27.596Z,100.00
2019-05-10T06:50:54.872Z,100.00
2019-05-10T06:53:24.400Z,100.00
2019-05-10T06:55:53.776Z,100.00
2019-05-10T06:58:23.105Z,100.00
2019-05-10T07:00:52.896Z,100.00
2019-05-10T07:03:22.323Z,100.00
2019-05-10T07:05:51.757Z,100.00
2019-05-10T07:08:21.113Z,100.00
2019-05-10T07:10:50.496Z,100.00
2019-05-10T07:13:19.799Z,100.00
2019-05-10T07:15:49.176Z,100.00
2019-05-10T07:18:22.819Z,100.00
2019-05-10T07:20:49.653Z,100.00
2019-05-10T07:23:18.951Z,100.00
2019-05-10T07:25:48.389Z,100.00
2019-05-10T07:28:17.872Z,100.00
2019-05-10T07:30:47.299Z,100.00
2019-05-10T07:33:16.653Z,100.00
2019-05-10T07:35:46.011Z,100.00
2019-05-10T07:38:15.652Z,100.00
2019-05-10T07:40:45.502Z,100.00
2019-05-10T07:43:24.711Z,100.00
2019-05-10T07:45:46.091Z,100.00
2019-05-10T07:48:15.500Z,100.00
2019-05-10T07:50:49.751Z,100.00
2019-05-10T07:53:22.016Z,100.00
2019-05-10T07:55:47.175Z,100.00
2019-05-10T07:58:16.569Z,100.00
2019-05-10T08:00:46.792Z,100.00
2019-05-10T08:03:21.305Z,100.00
2019-05-10T08:05:55.025Z,100.00
2019-05-10T08:08:19.326Z,100.00
2019-05-10T08:10:48.952Z,100.00
2019-05-10T08:13:21.269Z,100.00
2019-05-10T08:15:49.347Z,100.00
2019-05-10T08:18:21.192Z,100.00
2019-05-10T08:20:56.633Z,100.00
2019-05-10T08:23:23.792Z,100.00
2019-05-10T08:25:53.437Z,100.00
2019-05-10T08:28:27.572Z,100.00
2019-05-10T08:30:58.764Z,100.00
2019-05-10T08:33:25.215Z,100.00
2019-05-10T08:36:00.787Z,100.00
2019-05-10T08:38:25.818Z,98.67
2019-05-10T08:40:55.231Z,100.00
2019-05-10T08:43:24.868Z,100.00
2019-05-10T08:45:57.764Z,100.00
2019-05-10T08:48:27.642Z,100.00
2019-05-10T08:50:57.862Z,96.04
2019-05-10T08:53:27.830Z,99.33
2019-05-10T08:55:58.954Z,99.40
2019-05-10T08:58:42.189Z,98.77
2019-05-10T09:01:23.903Z,98.19
2019-05-10T09:03:47.084Z,94.81
2019-05-10T09:06:16.624Z,90.28
2019-05-10T09:08:45.267Z,87.35
2019-05-10T09:11:16.430Z,88.46
2019-05-10T09:13:46.505Z,87.63
2019-05-10T09:16:15.873Z,85.83
2019-05-10T09:18:50.227Z,81.93
2019-05-10T09:21:16.927Z,75.21
2019-05-10T09:23:52.766Z,75.13
2019-05-10T09:26:17.390Z,77.17
2019-05-10T09:28:47.590Z,77.21
2019-05-10T09:31:22.069Z,75.26
2019-05-10T09:33:51.501Z,79.08
2019-05-10T09:36:25.105Z,73.36
2019-05-10T09:38:52.710Z,76.28
2019-05-10T09:41:22.720Z,73.49
2019-05-10T09:43:53.826Z,71.36
2019-05-10T09:46:23.221Z,75.49
2019-05-10T09:48:54.551Z,77.02
2019-05-10T09:51:30.074Z,70.02
2019-05-10T09:53:57.919Z,71.42
2019-05-10T09:56:32.847Z,70.14
2019-05-10T09:58:59.395Z,65.38
2019-05-10T10:01:28.760Z,63.75
2019-05-10T10:04:01.897Z,61.79
2019-05-10T10:06:29.763Z,64.30
2019-05-10T10:09:00.976Z,59.98
2019-05-10T10:11:30.515Z,62.13
2019-05-10T10:14:02.209Z,58.83
2019-05-10T10:16:30.875Z,57.19
2019-05-10T10:19:00.233Z,56.78
2019-05-10T10:21:35.151Z,55.47
2019-05-10T10:24:00.727Z,54.73
2019-05-10T10:26:30.058Z,56.64
2019-05-10T10:29:00.087Z,56.44
2019-05-10T10:31:33.428Z,55.71
2019-05-10T10:34:03.141Z,51.02
2019-05-10T10:36:31.918Z,51.69
2019-05-10T10:39:01.284Z,53.84
2019-05-10T10:41:31.869Z,56.56
2019-05-10T10:44:01.472Z,57.44
2019-05-10T10:46:34.220Z,60.89
2019-05-10T10:49:01.939Z,61.33
2019-05-10T10:51:32.129Z,58.91
2019-05-10T10:54:02.429Z,59.52
2019-05-10T10:56:31.793Z,58.76
2019-05-10T10:59:01.185Z,59.01
2019-05-10T11:01:46.159Z,60.55
2019-05-10T11:04:07.949Z,61.84
2019-05-10T11:06:33.232Z,63.91
2019-05-10T11:09:02.564Z,63.12
2019-05-10T11:11:38.818Z,63.56
2019-05-10T11:14:07.089Z,63.14
2019-05-10T11:16:34.057Z,64.29
2019-05-10T11:19:09.175Z,62.42
2019-05-10T11:21:34.453Z,64.09
2019-05-10T11:24:03.818Z,64.58
2019-05-10T11:26:36.725Z,64.96
2019-05-10T11:29:04.242Z,64.45
2019-05-10T11:31:33.732Z,63.13
2019-05-10T11:34:05.968Z,58.28
2019-05-10T11:36:34.164Z,56.07
2019-05-10T11:39:06.060Z,54.38
2019-05-10T11:41:35.433Z,54.67
2019-05-10T11:44:08.824Z,50.69
2019-05-10T11:46:35.805Z,49.28
2019-05-10T11:49:05.143Z,48.88
2019-05-10T11:51:34.478Z,46.27
2019-05-10T11:54:03.812Z,47.33
2019-05-10T11:56:33.129Z,50.85
2019-05-10T11:59:02.810Z,52.74
2019-05-10T12:01:32.179Z,51.80
2019-05-10T12:06:32.567Z,53.47
2019-05-10T12:11:34.021Z,54.64
2019-05-10T12:14:04.220Z,52.81
2019-05-10T12:16:33.794Z,52.08
2019-05-10T12:19:14.944Z,51.13
2019-05-10T12:21:34.264Z,48.94
2019-05-10T12:24:24.362Z,49.25
2019-05-10T12:26:20.398Z,54.64
2019-05-10T12:26:30.550Z,52.10
2019-05-10T12:29:12.010Z,48.57
2019-05-10T12:31:36.829Z,50.30
2019-05-10T12:34:14.236Z,48.79
2019-05-10T12:36:37.255Z,47.58
2019-05-10T12:39:07.857Z,48.24
2019-05-10T12:41:39.822Z,48.91
2019-05-10T12:44:08.279Z,48.41
2019-05-10T12:46:41.382Z,49.82
2019-05-10T12:49:08.689Z,50.42
2019-05-10T12:51:38.020Z,52.45
2019-05-10T12:54:07.360Z,53.70
2019-05-10T12:56:43.909Z,51.57
2019-05-10T12:59:07.764Z,51.69
2019-05-10T13:01:37.101Z,50.27
2019-05-10T13:04:13.769Z,48.93
2019-05-10T13:06:37.486Z,49.65
2019-05-10T13:09:07.739Z,49.99
2019-05-10T13:11:37.186Z,51.30
2019-05-10T13:14:07.691Z,51.91
2019-05-10T13:16:37.656Z,50.44
2019-05-10T13:19:06.983Z,51.32
2019-05-10T13:21:36.319Z,52.99
2019-05-10T13:24:05.659Z,54.24
2019-05-10T13:26:35.106Z,54.56
2019-05-10T13:29:08.114Z,54.88
2019-05-10T13:31:42.167Z,53.35
2019-05-10T13:34:06.979Z,52.05
2019-05-10T13:36:37.167Z,49.42
2019-05-10T13:39:07.738Z,49.19
2019-05-10T13:41:37.093Z,51.01
2019-05-10T13:44:06.611Z,52.82
2019-05-10T13:46:36.001Z,53.72
2019-05-10T13:49:05.335Z,53.99
2019-05-10T13:51:34.695Z,54.44
2019-05-10T13:54:05.324Z,53.59
2019-05-10T13:56:34.953Z,53.68
2019-05-10T13:59:14.959Z,54.39
2019-05-10T14:01:35.467Z,55.19
2019-05-10T14:04:04.922Z,55.30
2019-05-10T14:06:34.418Z,55.66
2019-05-10T14:09:05.849Z,55.30
2019-05-10T14:11:40.549Z,55.23
2019-05-10T14:14:06.307Z,55.15
2019-05-10T14:16:35.753Z,55.02
2019-05-10T14:19:05.125Z,55.42
2019-05-10T14:21:34.455Z,56.09
2019-05-10T14:24:09.291Z,55.44
2019-05-10T14:26:34.947Z,55.02
2019-05-10T14:29:04.327Z,54.58
2019-05-10T14:31:33.687Z,54.90
2019-05-10T14:34:18.508Z,54.43
2019-05-10T14:36:40.682Z,54.58
2019-05-10T14:39:07.292Z,54.47
2019-05-10T14:41:39.676Z,54.59
2019-05-10T14:44:07.905Z,54.57
2019-05-10T14:46:37.612Z,55.30
2019-05-10T14:49:09.947Z,55.73
2019-05-10T14:51:56.385Z,55.59
2019-05-10T14:54:09.190Z,56.12
2019-05-10T14:56:38.530Z,55.92
2019-05-10T14:59:07.854Z,55.06
2019-05-10T15:01:43.037Z,54.83
2019-05-10T15:04:08.365Z,55.37
2019-05-10T15:06:39.050Z,55.44
2019-05-10T15:09:20.257Z,55.92
2019-05-10T15:11:40.419Z,55.28
2019-05-10T15:14:09.797Z,55.51
2019-05-10T15:16:39.124Z,55.58
2019-05-10T15:19:08.535Z,55.02
2019-05-10T15:21:37.871Z,54.77
2019-05-10T15:24:07.245Z,54.63
2019-05-10T15:26:37.623Z,53.24
2019-05-10T15:29:07.700Z,53.37
2019-05-10T15:31:45.983Z,54.07
2019-05-10T15:34:15.332Z,54.00
2019-05-10T15:36:44.660Z,54.12
2019-05-10T15:39:14.070Z,53.73
2019-05-10T15:41:43.435Z,53.40
2019-05-10T15:44:12.821Z,53.69
2019-05-10T15:46:42.607Z,53.86
2019-05-10T15:49:13.590Z,54.25
2019-05-10T15:51:43.151Z,54.48
2019-05-10T15:54:12.538Z,54.17
2019-05-10T15:56:43.990Z,54.47
2019-05-10T15:59:18.860Z,53.73
2019-05-10T16:01:45.646Z,53.71
2019-05-10T16:04:15.316Z,53.51
2019-05-10T16:06:44.647Z,52.78
2019-05-10T16:09:17.432Z,50.60
2019-05-10T16:12:01.895Z,50.71
2019-05-10T16:14:27.366Z,51.01
2019-05-10T16:16:56.881Z,51.55
2019-05-10T16:19:26.628Z,51.90
2019-05-10T16:21:58.123Z,52.66
2019-05-10T16:24:28.027Z,52.98
2019-05-10T16:26:59.973Z,53.84
2019-05-10T16:29:33.701Z,53.87
2019-05-10T16:31:59.842Z,54.59
2019-05-10T16:34:32.375Z,54.96
2019-05-10T16:37:00.323Z,55.10
2019-05-10T16:39:32.163Z,55.40
2019-05-10T16:42:01.646Z,55.24
2019-05-10T16:44:34.684Z,55.58
2019-05-10T16:47:04.085Z,56.03
2019-05-10T16:49:33.469Z,56.05
2019-05-10T16:52:02.824Z,55.86
2019-05-10T16:54:32.183Z,55.86
2019-05-10T16:57:01.713Z,55.95
2019-05-10T16:59:31.468Z,55.94
2019-05-10T17:02:04.562Z,56.23
2019-05-10T17:04:37.312Z,56.80
2019-05-10T17:07:03.068Z,57.20
2019-05-10T17:09:32.484Z,57.51
2019-05-10T17:12:01.828Z,58.09
2019-05-10T17:14:31.193Z,58.28
2019-05-10T17:17:00.531Z,58.61
2019-05-10T17:19:34.034Z,58.71
2019-05-10T17:22:01.066Z,58.80
2019-05-10T17:24:30.487Z,59.06
2019-05-10T17:26:59.864Z,59.56
2019-05-10T17:29:29.246Z,59.33
2019-05-10T17:31:58.574Z,59.17
2019-05-10T17:34:29.687Z,59.70
2019-05-10T17:36:59.863Z,60.02
2019-05-10T17:39:32.139Z,60.20
2019-05-10T17:42:03.229Z,60.39
2019-05-10T17:44:31.686Z,60.22
2019-05-10T17:47:01.005Z,60.37
2019-05-10T17:49:30.402Z,60.57
2019-05-10T17:51:59.945Z,61.00
2019-05-10T17:54:33.654Z,61.02
2019-05-10T17:57:00.428Z,60.56
2019-05-10T17:59:30.045Z,60.28
2019-05-10T18:01:59.383Z,60.36
2019-05-10T18:04:28.738Z,60.21
2019-05-10T18:06:58.118Z,60.32
2019-05-10T18:09:27.553Z,60.63
2019-05-10T18:11:56.846Z,60.80
2019-05-10T18:14:29.368Z,60.52
2019-05-10T18:16:57.289Z,60.64
2019-05-10T18:19:26.669Z,60.98
2019-05-10T18:22:00.340Z,60.83
2019-05-10T18:24:30.299Z,61.00
2019-05-10T18:26:58.211Z,60.91
2019-05-10T18:29:27.598Z,61.01
2019-05-10T18:31:58.326Z,60.89
2019-05-10T18:34:33.118Z,60.96
2019-05-10T18:36:59.040Z,60.93
2019-05-10T18:39:28.408Z,61.07
2019-05-10T18:41:57.799Z,61.19
2019-05-10T18:44:27.505Z,61.28
2019-05-10T18:46:56.821Z,61.42
2019-05-10T18:49:26.229Z,61.22
2019-05-10T18:52:03.557Z,61.53
2019-05-10T18:54:26.804Z,61.39
2019-05-10T18:56:56.131Z,61.46
2019-05-10T18:59:25.503Z,61.59
2019-05-10T19:01:54.858Z,61.50
2019-05-10T19:04:24.671Z,61.21
2019-05-10T19:07:09.307Z,61.57
2019-05-10T19:09:25.221Z,61.05
2019-05-10T19:11:54.767Z,61.14
2019-05-10T19:14:29.592Z,61.56
2019-05-10T19:16:56.725Z,61.61
2019-05-10T19:19:26.209Z,61.82
2019-05-10T19:21:55.586Z,61.99
2019-05-10T19:24:30.319Z,62.10
2019-05-10T19:27:01.535Z,62.15
2019-05-10T19:29:27.732Z,62.30
2019-05-10T19:31:57.153Z,62.20
2019-05-10T19:34:26.566Z,62.65
2019-05-10T19:36:55.967Z,63.06
2019-05-10T19:39:25.315Z,63.01
2019-05-10T19:42:03.194Z,63.01
2019-05-10T19:44:25.742Z,62.90
2019-05-10T19:46:55.055Z,62.48
2019-05-10T19:49:24.425Z,62.80
2019-05-10T19:51:53.769Z,63.05
2019-05-10T19:54:23.091Z,63.17
2019-05-10T19:56:55.444Z,62.83
2019-05-10T19:59:25.078Z,62.63
2019-05-10T20:01:54.430Z,62.77
2019-05-10T20:04:23.764Z,62.85
2019-05-10T20:06:54.236Z,63.24
2019-05-10T20:09:23.786Z,63.53
2019-05-10T20:11:53.117Z,63.84
2019-05-10T20:14:22.461Z,63.77
2019-05-10T20:16:53.376Z,63.77
2019-05-10T20:19:22.885Z,63.44
2019-05-10T20:21:52.203Z,63.47
2019-05-10T20:24:21.604Z,63.66
2019-05-10T20:26:51.260Z,63.67
2019-05-10T20:29:20.649Z,63.90
2019-05-10T20:31:50.000Z,63.94
2019-05-10T20:34:19.327Z,64.33
2019-05-10T20:36:48.660Z,64.74
2019-05-10T20:39:17.990Z,64.99
2019-05-10T20:41:47.334Z,65.04
2019-05-10T20:44:18.173Z,65.44
2019-05-10T20:46:47.750Z,65.78
2019-05-10T20:49:17.069Z,66.01
2019-05-10T20:51:46.402Z,66.26
2019-05-10T20:54:15.781Z,67.15
2019-05-10T20:56:45.187Z,68.22
2019-05-10T20:59:14.540Z,68.92
2019-05-10T21:01:43.887Z,69.20
2019-05-10T21:04:13.212Z,69.99
2019-05-10T21:06:42.551Z,70.59
2019-05-10T21:09:11.879Z,71.03
2019-05-10T21:11:41.193Z,71.57
2019-05-10T21:14:10.602Z,72.07
2019-05-10T21:16:39.955Z,72.83
2019-05-10T21:19:09.375Z,73.64
2019-05-10T21:21:38.693Z,74.26
2019-05-10T21:24:08.023Z,75.11
2019-05-10T21:26:37.412Z,75.64
2019-05-10T21:29:06.774Z,76.56
2019-05-10T21:31:36.519Z,76.96
2019-05-10T21:34:09.658Z,77.51
2019-05-10T21:36:36.988Z,77.91
2019-05-10T21:39:07.949Z,78.20
2019-05-10T21:41:37.278Z,78.32
2019-05-10T21:44:06.636Z,78.40
2019-05-10T21:46:36.229Z,78.67
2019-05-10T21:49:05.583Z,78.55
2019-05-10T21:51:34.909Z,78.75
2019-05-10T21:54:04.277Z,78.88
2019-05-10T21:56:36.253Z,79.08
2019-05-10T21:59:04.646Z,78.96
2019-05-10T22:01:34.010Z,79.04
2019-05-10T22:04:03.336Z,79.31
2019-05-10T22:06:32.677Z,79.40
2019-05-10T22:09:02.297Z,79.60
2019-05-10T22:11:31.628Z,79.94
2019-05-10T22:14:00.958Z,80.20
2019-05-10T22:16:30.385Z,80.47
2019-05-10T22:19:03.174Z,80.87
2019-05-10T22:21:32.506Z,80.95
2019-05-10T22:24:01.945Z,80.93
2019-05-10T22:26:31.273Z,80.82
2019-05-10T22:29:00.613Z,80.65
2019-05-10T22:31:29.982Z,80.42
2019-05-10T22:33:59.331Z,80.26
2019-05-10T22:36:28.671Z,80.03
2019-05-10T22:39:06.979Z,80.06
2019-05-10T22:41:29.147Z,79.95
2019-05-10T22:43:58.533Z,79.93
2019-05-10T22:46:27.866Z,80.12
2019-05-10T22:48:57.234Z,80.20
2019-05-10T22:51:26.556Z,80.38
2019-05-10T22:53:59.909Z,80.55
2019-05-10T22:56:29.263Z,80.68
2019-05-10T22:58:58.610Z,81.12
2019-05-10T23:01:28.004Z,81.22
2019-05-10T23:03:57.499Z,81.72
2019-05-10T23:06:26.935Z,81.61
2019-05-10T23:08:56.265Z,81.92
2019-05-10T23:11:25.688Z,81.93
2019-05-10T23:13:55.124Z,81.93
2019-05-10T23:16:24.500Z,82.00
2019-05-10T23:18:53.877Z,81.93
2019-05-10T23:21:23.249Z,82.04
2019-05-10T23:23:52.597Z,82.13
2019-05-10T23:26:22.021Z,82.45
2019-05-10T23:28:51.330Z,82.65
2019-05-10T23:31:20.740Z,83.04
2019-05-10T23:33:50.285Z,83.27
2019-05-10T23:36:19.852Z,83.19
2019-05-10T23:38:52.238Z,83.44
2019-05-10T23:41:20.827Z,83.59
2019-05-10T23:43:50.378Z,83.65
2019-05-10T23:46:19.958Z,83.70
2019-05-10T23:48:49.785Z,84.09
2019-05-10T23:51:19.354Z,84.25
2019-05-10T23:53:48.929Z,84.63
2019-05-10T23:56:18.499Z,84.94
2019-05-10T23:58:48.107Z,85.38
